Time;durP1;ratioP1;P1;durP2;ratioP2;P2;SDS_P1;SDS_P2;PMS_P1;PMS_P2;Temp;Humidity;BMP_temperature;BMP_pressure;BME280_temperature;BME280_humidity;BME280_pressure;Samples;Min_cycle;Max_cycle;Signal;HPM_P1;HPM_P2
2023/10/14 00:01:11;;;;;;;2.03;0.93;;;15.60;99.90;;;;;;5030072;28;20055;-83
2023/10/14 00:03:42;;;;;;;0.70;0.70;;;15.10;99.90;;;;;;5027328;28;20025;-82
2023/10/14 00:06:13;;;;;;;0.65;0.50;;;14.70;99.90;;;;;;5038012;28;20028;-82
2023/10/14 00:08:57;;;;;;;1.80;0.63;;;14.50;99.90;;;;;;5033614;28;20112;-82
2023/10/14 00:11:26;;;;;;;0.75;0.52;;;14.40;99.90;;;;;;5035851;28;20028;-84
2023/10/14 00:13:56;;;;;;;1.35;0.30;;;14.20;99.90;;;;;;5035818;28;20116;-84
2023/10/14 00:19:01;;;;;;;2.38;0.50;;;13.90;99.90;;;;;;5037111;28;20133;-82
2023/10/14 00:21:27;;;;;;;1.83;0.30;;;13.80;99.90;;;;;;5032194;28;20026;-85
2023/10/14 00:23:56;;;;;;;2.13;0.45;;;13.70;99.90;;;;;;5035512;28;20143;-83
2023/10/14 00:26:26;;;;;;;0.40;0.22;;;13.70;99.90;;;;;;5035827;28;20022;-84
2023/10/14 00:28:55;;;;;;;2.22;0.60;;;13.70;99.90;;;;;;5049162;28;20022;-83
2023/10/14 00:31:22;;;;;;;1.00;0.52;;;13.70;99.90;;;;;;5029050;28;20018;-85
2023/10/14 00:33:48;;;;;;;0.55;0.43;;;13.70;99.90;;;;;;5036063;28;20026;-83
2023/10/14 00:36:16;;;;;;;0.73;0.40;;;13.80;99.90;;;;;;5035765;28;20382;-83
2023/10/14 00:38:45;;;;;;;1.05;0.50;;;13.80;99.90;;;;;;5031636;28;20026;-83
2023/10/14 00:41:12;;;;;;;0.63;0.50;;;13.80;99.90;;;;;;5033552;28;20029;-85
2023/10/14 00:43:41;;;;;;;1.27;0.43;;;13.80;99.90;;;;;;5033841;28;20018;-82
2023/10/14 00:46:12;;;;;;;0.88;0.43;;;13.80;99.90;;;;;;5027934;28;20067;-83
2023/10/14 00:48:40;;;;;;;1.27;0.20;;;13.80;99.90;;;;;;5030716;28;20452;-83
2023/10/14 00:51:10;;;;;;;1.65;0.30;;;13.80;99.90;;;;;;5032095;28;20091;-83
2023/10/14 00:53:39;;;;;;;1.00;0.30;;;13.80;99.90;;;;;;5034195;28;20021;-81
2023/10/14 00:56:05;;;;;;;1.60;0.50;;;13.80;99.90;;;;;;5031949;28;20060;-83
2023/10/14 00:58:31;;;;;;;1.70;0.50;;;13.80;99.90;;;;;;5033343;28;20638;-85
2023/10/14 01:00:57;;;;;;;2.95;0.50;;;13.70;99.90;;;;;;5029894;28;20064;-83
2023/10/14 01:03:34;;;;;;;1.67;0.40;;;13.70;99.90;;;;;;5031121;28;20026;-82
2023/10/14 01:06:07;;;;;;;0.77;0.40;;;13.70;99.90;;;;;;5033848;28;20543;-82
2023/10/14 01:08:38;;;;;;;3.15;0.88;;;13.70;99.90;;;;;;5030878;28;20029;-82
2023/10/14 01:11:03;;;;;;;2.60;0.60;;;13.70;99.90;;;;;;5035190;28;20025;-85
2023/10/14 01:13:29;;;;;;;1.67;0.82;;;13.70;99.90;;;;;;5032299;28;20128;-82
2023/10/14 01:18:49;;;;;;;3.28;0.77;;;13.70;99.90;;;;;;5029568;28;20103;-82
2023/10/14 01:21:14;;;;;;;3.05;1.13;;;13.60;99.90;;;;;;5035349;28;20041;-82
2023/10/14 01:23:45;;;;;;;4.97;0.90;;;13.70;99.90;;;;;;5036908;28;20021;-84
2023/10/14 01:26:10;;;;;;;3.10;0.63;;;13.60;99.90;;;;;;5034014;28;20037;-82
2023/10/14 01:28:43;;;;;;;3.22;1.25;;;13.70;99.90;;;;;;5035145;28;20558;-82
2023/10/14 01:31:40;;;;;;;3.20;0.65;;;13.70;99.90;;;;;;5033973;28;20517;-83
2023/10/14 01:34:07;;;;;;;1.02;0.80;;;13.60;99.90;;;;;;5030043;28;20028;-82
2023/10/14 01:36:37;;;;;;;2.45;0.90;;;13.60;99.90;;;;;;5033603;28;20033;-83
2023/10/14 01:39:09;;;;;;;2.97;0.77;;;13.60;99.90;;;;;;5037178;28;20017;-83
2023/10/14 01:41:35;;;;;;;2.50;0.82;;;13.60;99.90;;;;;;5033480;28;20025;-82
2023/10/14 01:44:05;;;;;;;2.00;0.75;;;13.60;99.90;;;;;;5033100;28;20079;-82
2023/10/14 01:46:34;;;;;;;1.40;0.63;;;13.60;99.90;;;;;;5032493;28;20359;-83
2023/10/14 01:49:11;;;;;;;1.75;0.60;;;13.60;99.90;;;;;;5035928;28;20120;-84
2023/10/14 01:51:37;;;;;;;2.45;0.75;;;13.60;99.90;;;;;;5033313;28;20137;-84
2023/10/14 01:54:06;;;;;;;3.88;1.02;;;13.60;99.90;;;;;;5034828;28;20489;-83
2023/10/14 01:56:32;;;;;;;5.32;1.13;;;13.60;99.90;;;;;;5033447;28;20026;-83
2023/10/14 01:58:57;;;;;;;2.95;1.02;;;13.50;99.90;;;;;;5038834;28;20125;-84
2023/10/14 02:01:23;;;;;;;5.05;1.20;;;13.50;99.90;;;;;;5033728;28;20030;-85
2023/10/14 02:03:54;;;;;;;2.92;1.30;;;13.50;99.90;;;;;;5034754;28;20105;-83
2023/10/14 02:06:25;;;;;;;4.95;1.10;;;13.50;99.90;;;;;;5032335;28;20116;-84
2023/10/14 02:08:51;;;;;;;3.17;0.95;;;13.50;99.90;;;;;;5031304;28;20053;-85
2023/10/14 02:11:20;;;;;;;4.55;0.93;;;13.50;99.90;;;;;;5031636;28;20014;-86
2023/10/14 02:13:49;;;;;;;3.72;1.00;;;13.50;99.90;;;;;;5031646;28;21267;-83
2023/10/14 02:16:15;;;;;;;4.40;1.17;;;13.50;99.90;;;;;;5029373;28;20025;-83
2023/10/14 02:18:42;;;;;;;4.10;0.70;;;13.50;99.90;;;;;;5031765;28;20027;-84
2023/10/14 02:23:45;;;;;;;1.60;0.63;;;13.40;99.90;;;;;;5032257;28;20024;-82
2023/10/14 02:26:30;;;;;;;2.45;0.88;;;13.40;99.90;;;;;;5034555;28;20108;-83
2023/10/14 02:28:57;;;;;;;4.80;0.80;;;13.30;99.90;;;;;;5032181;28;20021;-82
2023/10/14 02:33:53;;;;;;;6.15;1.13;;;13.20;99.90;;;;;;5030944;28;20443;-84
2023/10/14 02:36:20;;;;;;;1.40;0.70;;;13.10;99.90;;;;;;5029420;28;20681;-82
2023/10/14 02:38:54;;;;;;;4.18;0.80;;;13.10;99.90;;;;;;5031308;28;20041;-81
2023/10/14 02:41:26;;;;;;;3.20;0.73;;;13.10;99.90;;;;;;5029771;28;20037;-84
2023/10/14 02:46:41;;;;;;;1.35;0.60;;;13.00;99.90;;;;;;5030656;28;20500;-85
2023/10/14 02:49:07;;;;;;;2.35;0.63;;;12.90;99.90;;;;;;5034080;28;20551;-83
2023/10/14 02:51:41;;;;;;;3.75;0.82;;;12.80;99.90;;;;;;5030124;28;20029;-81
2023/10/14 02:54:15;;;;;;;1.20;0.68;;;12.70;99.90;;;;;;5030288;28;20022;-84
2023/10/14 02:59:19;;;;;;;7.88;0.88;;;12.60;99.90;;;;;;5030246;28;20024;-83
2023/10/14 03:02:09;;;;;;;1.27;0.60;;;12.60;99.90;;;;;;5032827;28;20108;-84
2023/10/14 03:04:39;;;;;;;2.47;0.90;;;12.50;99.90;;;;;;5031592;28;20081;-83
2023/10/14 03:07:07;;;;;;;2.22;0.98;;;12.50;99.90;;;;;;5031101;28;20276;-83
2023/10/14 03:09:34;;;;;;;3.13;1.10;;;12.50;99.90;;;;;;5031396;28;20462;-84
2023/10/14 03:12:00;;;;;;;2.75;0.70;;;12.40;99.90;;;;;;5029632;28;20029;-83
2023/10/14 03:14:26;;;;;;;4.30;1.08;;;12.40;99.90;;;;;;5030439;28;20075;-83
2023/10/14 03:16:52;;;;;;;5.38;1.10;;;12.40;99.90;;;;;;5026525;28;20103;-83
2023/10/14 03:19:19;;;;;;;3.03;0.98;;;12.40;99.90;;;;;;5034665;28;20025;-83
2023/10/14 03:21:58;;;;;;;1.80;0.73;;;12.40;99.90;;;;;;5036038;28;20112;-83
2023/10/14 03:24:25;;;;;;;2.33;1.00;;;12.40;99.90;;;;;;5026353;28;20021;-83
2023/10/14 03:26:58;;;;;;;2.42;0.60;;;12.40;99.90;;;;;;5034595;28;20032;-85
2023/10/14 03:29:25;;;;;;;1.35;0.73;;;12.40;99.90;;;;;;5029127;28;20029;-84
2023/10/14 03:31:52;;;;;;;3.13;1.02;;;12.30;99.90;;;;;;5032490;28;20021;-85
2023/10/14 03:34:18;;;;;;;3.00;0.80;;;12.30;99.90;;;;;;5029111;28;20028;-83
2023/10/14 03:36:43;;;;;;;2.35;1.30;;;12.30;99.90;;;;;;5032683;28;20071;-82
2023/10/14 03:39:37;;;;;;;3.50;0.75;;;12.30;99.90;;;;;;5035689;28;20029;-83
2023/10/14 03:41:55;;;;;;;1.25;1.00;;;12.30;99.90;;;;;;5028246;28;20025;-83
2023/10/14 03:44:23;;;;;;;3.67;0.80;;;12.20;99.90;;;;;;5029555;28;20518;-85
2023/10/14 03:46:59;;;;;;;4.93;0.80;;;12.20;99.90;;;;;;5028878;28;20055;-83
2023/10/14 03:49:25;;;;;;;5.63;1.20;;;12.10;99.90;;;;;;5026307;28;20057;-83
2023/10/14 03:51:57;;;;;;;2.17;0.75;;;12.00;99.90;;;;;;5031407;28;20025;-84
2023/10/14 03:54:24;;;;;;;1.52;0.85;;;12.00;99.90;;;;;;5029695;28;20021;-85
2023/10/14 03:56:50;;;;;;;4.15;1.05;;;11.90;99.90;;;;;;5031676;28;20040;-83
2023/10/14 03:59:22;;;;;;;2.13;0.60;;;11.90;99.90;;;;;;5047776;28;20017;-83
2023/10/14 04:01:54;;;;;;;7.45;1.33;;;11.80;99.90;;;;;;5030764;28;20025;-84
2023/10/14 04:04:21;;;;;;;3.40;1.00;;;11.80;99.90;;;;;;5034456;28;20013;-84
2023/10/14 04:07:31;;;;;;;3.13;1.00;;;11.80;99.90;;;;;;5030586;28;20091;-83
2023/10/14 04:09:56;;;;;;;3.53;0.63;;;11.70;99.90;;;;;;5031327;28;20449;-83
2023/10/14 04:12:36;;;;;;;2.58;1.27;;;11.70;99.90;;;;;;5030213;28;20545;-83
2023/10/14 04:15:15;;;;;;;1.80;0.90;;;11.70;99.90;;;;;;5028624;28;20546;-83
2023/10/14 04:17:46;;;;;;;3.92;1.15;;;11.70;99.90;;;;;;5028110;28;20030;-82
2023/10/14 04:28:18;;;;;;;4.78;1.17;;;11.50;99.90;;;;;;5027417;28;20109;-83
2023/10/14 04:35:25;;;;;;;4.38;1.05;;;11.40;99.90;;;;;;5033987;28;20100;-83
2023/10/14 04:37:52;;;;;;;4.07;1.13;;;11.40;99.90;;;;;;5033934;28;20036;-85
2023/10/14 04:43:19;;;;;;;5.82;1.42;;;11.30;99.90;;;;;;5029191;28;20109;-82
2023/10/14 04:46:14;;;;;;;1.83;1.13;;;11.30;99.90;;;;;;5033683;28;20048;-85
2023/10/14 04:48:39;;;;;;;3.35;1.00;;;11.20;99.90;;;;;;5032954;28;20416;-85
2023/10/14 04:51:07;;;;;;;2.10;1.23;;;11.20;99.90;;;;;;5033951;28;20109;-83
2023/10/14 04:53:33;;;;;;;6.25;1.58;;;11.20;99.90;;;;;;5035862;28;20014;-83
2023/10/14 04:56:04;;;;;;;5.55;1.05;;;11.20;99.90;;;;;;5036511;28;20036;-83
2023/10/14 04:58:32;;;;;;;3.78;1.40;;;11.20;99.90;;;;;;5049897;28;20036;-82
2023/10/14 05:01:03;;;;;;;9.13;1.55;;;11.20;99.90;;;;;;5032344;28;20021;-85
2023/10/14 05:03:29;;;;;;;2.75;1.35;;;11.10;99.90;;;;;;5034621;28;20192;-83
2023/10/14 05:06:14;;;;;;;2.85;1.08;;;11.20;99.90;;;;;;5034944;28;20032;-82
2023/10/14 05:08:47;;;;;;;3.65;1.00;;;11.10;99.90;;;;;;5036376;28;20029;-82
2023/10/14 05:11:14;;;;;;;3.33;1.13;;;11.10;99.90;;;;;;5034713;28;20022;-84
2023/10/14 05:13:44;;;;;;;2.63;1.63;;;11.10;99.90;;;;;;5031907;28;20068;-82
2023/10/14 05:16:16;;;;;;;4.78;1.52;;;11.10;99.90;;;;;;5033901;28;20119;-83
2023/10/14 05:21:36;;;;;;;5.00;1.33;;;11.20;99.90;;;;;;5037128;28;20032;-83
2023/10/14 05:24:06;;;;;;;6.57;1.50;;;11.20;99.90;;;;;;5036454;28;20128;-82
2023/10/14 05:26:36;;;;;;;6.95;1.45;;;11.20;99.90;;;;;;5033391;28;20060;-83
2023/10/14 05:29:11;;;;;;;4.05;1.02;;;11.10;99.90;;;;;;5034728;28;20021;-84
2023/10/14 05:31:37;;;;;;;7.57;1.30;;;11.10;99.90;;;;;;5036830;28;20060;-84
2023/10/14 05:34:04;;;;;;;5.75;1.52;;;11.00;99.90;;;;;;5036083;28;20036;-83
2023/10/14 05:36:32;;;;;;;3.33;1.13;;;10.90;99.90;;;;;;5039276;28;20025;-84
2023/10/14 05:38:57;;;;;;;5.50;1.10;;;10.90;99.90;;;;;;5040281;28;20024;-82
2023/10/14 05:41:23;;;;;;;8.85;1.27;;;10.90;99.90;;;;;;5030052;28;20029;-83
2023/10/14 05:43:51;;;;;;;6.03;1.95;;;10.90;99.90;;;;;;5031377;28;20469;-82
2023/10/14 05:46:16;;;;;;;4.30;1.38;;;10.80;99.90;;;;;;5030105;28;20029;-82
2023/10/14 05:48:42;;;;;;;6.40;0.95;;;10.80;99.90;;;;;;5030579;28;20032;-84
2023/10/14 05:51:08;;;;;;;6.65;1.65;;;10.80;99.90;;;;;;5032103;28;20032;-85
2023/10/14 05:53:33;;;;;;;6.85;1.45;;;10.70;99.90;;;;;;5031340;28;20101;-85
2023/10/14 05:56:09;;;;;;;5.90;1.58;;;10.70;99.90;;;;;;5031435;28;20033;-83
2023/10/14 05:58:38;;;;;;;6.80;1.45;;;10.70;99.90;;;;;;5030161;28;20207;-84
2023/10/14 06:01:13;;;;;;;3.60;1.05;;;10.70;99.90;;;;;;5029570;28;20021;-84
2023/10/14 06:03:43;;;;;;;11.30;1.70;;;10.70;99.90;;;;;;5029974;28;20377;-84
2023/10/14 06:06:14;;;;;;;5.13;1.42;;;10.70;99.90;;;;;;5029696;28;20028;-83
2023/10/14 06:08:41;;;;;;;4.57;1.23;;;10.60;99.90;;;;;;5027610;28;20013;-82
2023/10/14 06:11:07;;;;;;;6.25;1.55;;;10.70;99.90;;;;;;5029407;28;20021;-84
2023/10/14 06:13:34;;;;;;;5.30;1.17;;;10.70;99.90;;;;;;5029175;28;20552;-84
2023/10/14 06:16:00;;;;;;;4.70;1.15;;;10.70;99.90;;;;;;5030043;28;20053;-83
2023/10/14 06:18:29;;;;;;;4.90;1.50;;;10.70;99.90;;;;;;5029724;28;20022;-83
2023/10/14 06:20:57;;;;;;;4.75;1.38;;;10.60;99.90;;;;;;5028147;28;20017;-84
2023/10/14 06:23:26;;;;;;;4.80;1.67;;;10.60;99.90;;;;;;5029959;28;20025;-83
2023/10/14 06:25:52;;;;;;;6.18;1.42;;;10.60;99.90;;;;;;5031389;28;20071;-82
2023/10/14 06:28:19;;;;;;;9.82;1.80;;;10.50;99.90;;;;;;5031437;28;20022;-82
2023/10/14 06:30:45;;;;;;;7.50;1.50;;;10.50;99.90;;;;;;5033040;28;20002;-82
2023/10/14 06:33:11;;;;;;;1.85;0.77;;;10.50;99.90;;;;;;5032950;28;20115;-82
2023/10/14 06:35:42;;;;;;;8.27;1.85;;;10.50;99.90;;;;;;5035129;28;20043;-82
2023/10/14 06:38:09;;;;;;;7.50;2.10;;;10.50;99.90;;;;;;5028955;28;20025;-84
2023/10/14 06:40:42;;;;;;;5.15;1.77;;;10.50;99.90;;;;;;5033763;28;20357;-82
2023/10/14 06:43:09;;;;;;;9.80;1.63;;;10.50;99.90;;;;;;5030246;28;20551;-82
2023/10/14 06:45:38;;;;;;;6.40;1.38;;;10.60;99.90;;;;;;5035407;28;20028;-83
2023/10/14 06:48:05;;;;;;;8.10;1.50;;;10.60;99.90;;;;;;5033818;28;20087;-82
2023/10/14 06:50:32;;;;;;;6.70;1.55;;;10.70;99.90;;;;;;5035699;28;20028;-83
2023/10/14 06:53:07;;;;;;;8.10;1.65;;;10.70;99.90;;;;;;5031808;28;20488;-84
2023/10/14 06:55:39;;;;;;;5.47;1.10;;;10.70;99.90;;;;;;5033596;28;20021;-83
2023/10/14 06:58:08;;;;;;;3.95;1.58;;;10.70;99.90;;;;;;5033610;28;20460;-85
2023/10/14 07:00:37;;;;;;;6.93;1.38;;;10.70;99.90;;;;;;5032973;28;20013;-83
2023/10/14 07:03:10;;;;;;;4.25;1.50;;;10.70;99.90;;;;;;5029064;28;20025;-83
2023/10/14 07:05:43;;;;;;;9.02;1.70;;;10.70;99.90;;;;;;5032849;28;20037;-84
2023/10/14 07:08:09;;;;;;;4.35;1.00;;;10.60;99.90;;;;;;5030941;28;20021;-82
2023/10/14 07:10:34;;;;;;;5.38;1.38;;;10.60;99.90;;;;;;5032302;28;20013;-83
2023/10/14 07:13:01;;;;;;;4.35;1.52;;;10.60;99.90;;;;;;5032614;28;20041;-82
2023/10/14 07:15:33;;;;;;;9.25;1.10;;;10.60;99.90;;;;;;5037700;28;20021;-83
2023/10/14 07:17:59;;;;;;;6.35;1.55;;;10.60;99.90;;;;;;5031052;28;20033;-84
2023/10/14 07:20:34;;;;;;;3.05;1.33;;;10.60;99.90;;;;;;5034848;28;20033;-83
2023/10/14 07:23:01;;;;;;;8.70;2.38;;;10.60;99.90;;;;;;5032220;28;20025;-84
2023/10/14 07:25:41;;;;;;;6.20;1.70;;;10.60;99.90;;;;;;5036041;28;20097;-85
2023/10/14 07:28:13;;;;;;;6.97;1.77;;;10.60;99.90;;;;;;5040244;28;20496;-86
2023/10/14 07:30:46;;;;;;;4.53;1.58;;;10.60;99.90;;;;;;5032616;28;20710;-84
2023/10/14 07:33:12;;;;;;;6.15;1.23;;;10.60;99.90;;;;;;5031488;28;20033;-84
2023/10/14 07:35:41;;;;;;;10.57;1.85;;;10.60;99.90;;;;;;5048394;28;20037;-84
2023/10/14 07:38:11;;;;;;;5.20;1.25;;;10.70;99.90;;;;;;5035704;28;20109;-82
2023/10/14 07:40:37;;;;;;;10.45;2.63;;;10.60;99.90;;;;;;5032421;28;20049;-84
2023/10/14 07:43:08;;;;;;;4.55;1.13;;;10.70;99.90;;;;;;5030332;28;20036;-84
2023/10/14 07:45:46;;;;;;;8.07;1.27;;;10.80;99.90;;;;;;5032015;28;20105;-83
2023/10/14 07:48:12;;;;;;;3.92;1.60;;;10.80;99.90;;;;;;5032994;28;20030;-85
2023/10/14 07:50:44;;;;;;;4.85;1.63;;;10.80;99.90;;;;;;5030231;28;20025;-83
2023/10/14 07:53:13;;;;;;;4.60;1.55;;;10.80;99.90;;;;;;5031537;28;20503;-83
2023/10/14 07:55:44;;;;;;;4.18;1.30;;;10.80;99.90;;;;;;5032331;28;20465;-83
2023/10/14 07:58:10;;;;;;;8.38;1.50;;;10.90;99.90;;;;;;5034477;28;20029;-82
2023/10/14 08:00:41;;;;;;;3.22;1.50;;;10.90;99.90;;;;;;5032502;28;20032;-83
2023/10/14 08:03:09;;;;;;;13.77;2.58;;;11.00;99.90;;;;;;5033231;28;20032;-84
2023/10/14 08:05:38;;;;;;;5.90;1.50;;;11.00;99.90;;;;;;5031509;28;20069;-81
2023/10/14 08:08:10;;;;;;;11.95;1.55;;;11.10;99.90;;;;;;5036577;28;20102;-83
2023/10/14 08:10:43;;;;;;;7.00;2.30;;;11.30;99.90;;;;;;5032598;28;20297;-83
2023/10/14 08:13:10;;;;;;;6.50;1.80;;;11.30;99.90;;;;;;5032781;28;20378;-83
2023/10/14 08:15:36;;;;;;;11.60;1.60;;;11.30;99.90;;;;;;5031532;28;20048;-82
2023/10/14 08:18:04;;;;;;;3.38;1.50;;;11.30;99.90;;;;;;5034085;28;20433;-86
2023/10/14 08:20:31;;;;;;;9.98;1.38;;;11.30;99.90;;;;;;5031013;28;20148;-83
2023/10/14 08:22:57;;;;;;;4.07;1.52;;;11.20;99.90;;;;;;5030599;28;20029;-84
2023/10/14 08:25:28;;;;;;;4.22;1.15;;;11.20;99.90;;;;;;5036749;28;20580;-83
2023/10/14 08:27:55;;;;;;;6.07;1.92;;;11.20;99.90;;;;;;5032362;28;20017;-82
2023/10/14 08:30:24;;;;;;;6.00;1.63;;;11.30;99.90;;;;;;5031506;28;20063;-83
2023/10/14 08:32:52;;;;;;;6.47;1.55;;;11.30;99.90;;;;;;5032432;28;20017;-84
2023/10/14 08:35:19;;;;;;;10.70;1.95;;;11.40;99.90;;;;;;5030364;28;20101;-84
2023/10/14 08:37:52;;;;;;;6.13;1.33;;;11.40;99.90;;;;;;5032860;28;20026;-83
2023/10/14 08:40:22;;;;;;;8.90;2.08;;;11.40;99.90;;;;;;5034801;28;20018;-84
2023/10/14 08:42:54;;;;;;;4.95;1.30;;;11.40;99.90;;;;;;5033124;28;20041;-84
2023/10/14 08:45:21;;;;;;;6.07;1.88;;;11.50;99.90;;;;;;5035325;28;20021;-85
2023/10/14 08:47:51;;;;;;;5.80;1.65;;;11.60;99.90;;;;;;5038121;28;20030;-85
2023/10/14 08:50:24;;;;;;;3.63;1.17;;;11.60;99.90;;;;;;5056036;28;20056;-87
2023/10/14 08:52:55;;;;;;;10.80;1.63;;;11.50;99.90;;;;;;5053699;28;20527;-86
2023/10/14 08:55:22;;;;;;;8.57;1.83;;;11.50;99.90;;;;;;5044148;28;20021;-84
2023/10/14 08:57:49;;;;;;;7.78;1.48;;;11.50;99.90;;;;;;5030662;28;20567;-83
2023/10/14 09:00:20;;;;;;;7.70;1.27;;;11.50;99.90;;;;;;5033853;28;20033;-83
2023/10/14 09:02:53;;;;;;;4.20;1.38;;;11.50;99.90;;;;;;5034250;28;20030;-83
2023/10/14 09:05:20;;;;;;;8.38;1.83;;;11.60;99.90;;;;;;5033028;28;20021;-84
2023/10/14 09:07:49;;;;;;;8.10;1.25;;;11.60;99.90;;;;;;5035990;28;20064;-83
2023/10/14 09:10:18;;;;;;;8.43;1.48;;;11.70;99.90;;;;;;5036073;28;20033;-86
2023/10/14 09:13:01;;;;;;;5.40;1.40;;;11.90;99.90;;;;;;5036220;28;20071;-86
2023/10/14 09:15:28;;;;;;;5.82;1.70;;;12.00;99.90;;;;;;5036809;28;20021;-84
2023/10/14 09:17:55;;;;;;;6.72;1.67;;;12.00;99.90;;;;;;5036828;28;20109;-82
2023/10/14 09:20:38;;;;;;;4.80;1.35;;;12.10;99.90;;;;;;5030534;28;20188;-81
2023/10/14 09:23:39;;;;;;;6.47;1.40;;;12.10;99.90;;;;;;5029608;28;20033;-83
2023/10/14 09:26:06;;;;;;;5.95;1.38;;;12.20;99.90;;;;;;5030924;28;20484;-83
2023/10/14 09:28:33;;;;;;;1.73;1.13;;;12.30;99.90;;;;;;5030265;28;20496;-84
2023/10/14 09:31:02;;;;;;;9.45;2.20;;;12.30;99.90;;;;;;5032477;28;20025;-83
2023/10/14 09:33:29;;;;;;;5.95;1.67;;;12.30;99.90;;;;;;5031558;28;20036;-82
2023/10/14 09:35:58;;;;;;;3.75;0.93;;;12.30;99.90;;;;;;5031778;28;20023;-83
2023/10/14 09:38:24;;;;;;;7.82;1.98;;;12.20;99.90;;;;;;5035932;28;20021;-84
2023/10/14 09:41:04;;;;;;;9.75;2.08;;;12.30;99.90;;;;;;5034486;28;20045;-82
2023/10/14 09:43:32;;;;;;;14.73;1.73;;;12.30;99.90;;;;;;5033015;28;20033;-82
2023/10/14 09:46:03;;;;;;;6.53;1.25;;;12.40;99.90;;;;;;5035980;28;20082;-83
2023/10/14 09:48:31;;;;;;;5.25;1.23;;;12.40;99.90;;;;;;5031482;28;20037;-83
2023/10/14 09:51:00;;;;;;;6.10;1.52;;;12.60;99.90;;;;;;5033879;28;20005;-83
2023/10/14 09:53:27;;;;;;;7.28;1.63;;;12.70;99.90;;;;;;5031610;28;20508;-83
2023/10/14 09:55:55;;;;;;;4.60;1.80;;;12.80;99.90;;;;;;5033334;28;20465;-84
2023/10/14 09:58:23;;;;;;;4.75;1.13;;;12.70;99.90;;;;;;5034034;28;20021;-85
2023/10/14 10:00:50;;;;;;;5.93;1.17;;;11.90;99.90;;;;;;5034754;28;20049;-85
2023/10/14 10:03:19;;;;;;;6.80;1.30;;;11.50;99.90;;;;;;5034114;28;20029;-85
2023/10/14 10:06:04;;;;;;;5.32;1.40;;;11.20;99.90;;;;;;5035935;28;20029;-84
2023/10/14 10:08:57;;;;;;;3.00;0.93;;;11.10;99.90;;;;;;5032098;28;20053;-84
2023/10/14 10:11:24;;;;;;;5.07;0.90;;;10.90;99.90;;;;;;5047467;28;20113;-84
2023/10/14 10:13:53;;;;;;;6.22;0.90;;;10.70;99.90;;;;;;5033185;28;20017;-85
2023/10/14 10:16:22;;;;;;;2.75;0.70;;;10.50;99.90;;;;;;5031043;28;20116;-84
2023/10/14 10:18:57;;;;;;;3.42;0.90;;;10.30;99.90;;;;;;5030657;28;20049;-85
2023/10/14 10:21:34;;;;;;;4.47;0.68;;;10.20;99.90;;;;;;5031013;28;20030;-85
2023/10/14 10:24:23;;;;;;;2.95;0.80;;;10.10;99.90;;;;;;5033489;28;20037;-84
2023/10/14 10:27:05;;;;;;;4.75;0.82;;;9.90;99.90;;;;;;5020390;28;20117;-84
2023/10/14 10:29:34;;;;;;;3.00;0.45;;;9.90;99.90;;;;;;5031816;28;20013;-84
2023/10/14 10:32:13;;;;;;;2.03;0.60;;;9.90;99.90;;;;;;5033475;28;20021;-83
2023/10/14 10:35:06;;;;;;;2.55;0.52;;;9.90;99.90;;;;;;5031124;28;20017;-84
2023/10/14 10:37:49;;;;;;;1.83;0.60;;;9.90;99.90;;;;;;5032919;28;20041;-85
2023/10/14 10:40:26;;;;;;;2.38;0.90;;;10.00;99.90;;;;;;5031300;28;20021;-84
2023/10/14 10:42:56;;;;;;;4.18;0.50;;;10.10;99.90;;;;;;5033596;28;20032;-84
2023/10/14 10:45:26;;;;;;;2.92;0.82;;;10.20;99.90;;;;;;5031132;28;20036;-84
2023/10/14 10:47:56;;;;;;;2.55;0.50;;;10.30;99.90;;;;;;5034398;28;20022;-83
2023/10/14 10:50:25;;;;;;;5.47;0.68;;;10.20;99.90;;;;;;5030644;28;20025;-83
2023/10/14 10:53:10;;;;;;;3.13;1.25;;;10.30;99.90;;;;;;5034134;28;20032;-83
2023/10/14 10:55:41;;;;;;;2.53;0.45;;;10.40;99.90;;;;;;5033763;28;20049;-83
2023/10/14 10:58:14;;;;;;;2.67;0.45;;;10.40;99.90;;;;;;5034937;28;20055;-84
2023/10/14 11:00:41;;;;;;;3.38;0.60;;;10.40;99.90;;;;;;5034767;28;20029;-84
2023/10/14 11:03:07;;;;;;;0.40;0.40;;;10.40;99.90;;;;;;5037002;28;20017;-83
2023/10/14 11:05:36;;;;;;;1.30;0.60;;;10.40;99.90;;;;;;5037626;28;20036;-83
2023/10/14 11:08:04;;;;;;;6.20;1.13;;;10.40;99.90;;;;;;5030297;28;20639;-84
2023/10/14 11:10:31;;;;;;;4.88;1.45;;;10.50;99.90;;;;;;5031258;28;20212;-84
2023/10/14 11:12:58;;;;;;;2.45;0.68;;;10.60;99.90;;;;;;5031564;28;20017;-83
2023/10/14 11:15:31;;;;;;;2.33;1.25;;;10.60;99.90;;;;;;5030880;28;20596;-84
2023/10/14 11:17:59;;;;;;;2.08;0.80;;;10.60;99.90;;;;;;5027200;28;20389;-84
2023/10/14 11:20:32;;;;;;;3.70;0.65;;;10.60;99.90;;;;;;5028877;28;20068;-83
2023/10/14 11:22:58;;;;;;;4.40;0.70;;;10.60;99.90;;;;;;5029255;28;20022;-85
2023/10/14 11:25:25;;;;;;;1.90;0.55;;;10.50;99.90;;;;;;5028786;28;20040;-84
2023/10/14 11:27:54;;;;;;;3.10;0.60;;;10.50;99.90;;;;;;5030372;28;20028;-83
2023/10/14 11:30:20;;;;;;;2.60;0.52;;;10.30;99.90;;;;;;5026823;28;20021;-83
2023/10/14 11:32:50;;;;;;;4.03;0.63;;;10.10;99.90;;;;;;5029317;28;20084;-85
2023/10/14 11:35:18;;;;;;;2.22;0.50;;;10.10;99.90;;;;;;5028627;28;20075;-83
2023/10/14 11:37:49;;;;;;;1.17;0.60;;;9.90;99.90;;;;;;5030597;28;20025;-83
2023/10/14 11:40:15;;;;;;;1.70;0.30;;;9.90;99.90;;;;;;5029130;28;20036;-84
2023/10/14 11:42:42;;;;;;;4.18;1.13;;;9.90;99.90;;;;;;5028657;28;20048;-83
2023/10/14 11:45:08;;;;;;;3.38;0.63;;;9.90;99.90;;;;;;5029822;28;20341;-84
2023/10/14 11:47:39;;;;;;;2.55;0.52;;;9.90;99.90;;;;;;5029253;28;20031;-84
2023/10/14 11:50:12;;;;;;;5.70;0.47;;;9.90;99.90;;;;;;5029136;28;20116;-83
2023/10/14 11:52:42;;;;;;;1.10;0.55;;;10.00;99.90;;;;;;5026223;28;20108;-85
2023/10/14 11:55:14;;;;;;;1.30;0.60;;;10.00;99.90;;;;;;5029848;28;20029;-84
2023/10/14 11:57:48;;;;;;;2.28;0.70;;;10.10;99.90;;;;;;5026904;28;20085;-86
2023/10/14 12:00:20;;;;;;;1.13;0.73;;;10.10;99.90;;;;;;5028088;28;20017;-83
2023/10/14 12:02:49;;;;;;;2.50;0.75;;;10.30;99.90;;;;;;5028463;28;20013;-86
2023/10/14 12:05:16;;;;;;;2.55;1.13;;;10.30;99.90;;;;;;5027703;28;20014;-82
2023/10/14 12:07:43;;;;;;;4.82;0.73;;;10.40;99.90;;;;;;5028854;28;20028;-83
2023/10/14 12:10:09;;;;;;;5.45;1.13;;;10.50;99.90;;;;;;5026731;28;20048;-84
2023/10/14 12:12:37;;;;;;;3.63;0.85;;;10.60;99.90;;;;;;5028593;28;20022;-82
2023/10/14 12:15:05;;;;;;;2.53;0.75;;;10.60;99.90;;;;;;5029683;28;20462;-82
2023/10/14 12:17:38;;;;;;;3.53;0.98;;;10.80;99.90;;;;;;5028591;28;20029;-84
2023/10/14 12:20:10;;;;;;;2.97;0.85;;;10.90;99.90;;;;;;5040945;22;20081;-61
2023/10/14 12:22:37;;;;;;;6.63;0.82;;;11.00;99.90;;;;;;5007515;28;20055;-59
2023/10/14 12:25:03;;;;;;;4.88;1.10;;;11.10;99.90;;;;;;5024601;28;20301;-58
2023/10/14 12:27:29;;;;;;;4.22;0.80;;;11.10;99.90;;;;;;5024850;28;20084;-59
2023/10/14 12:29:59;;;;;;;4.40;1.08;;;11.20;99.90;;;;;;5024801;28;20536;-58
2023/10/14 12:32:32;;;;;;;1.90;0.68;;;11.30;99.90;;;;;;5024807;28;20060;-60
2023/10/14 12:35:01;;;;;;;4.40;0.80;;;11.40;99.90;;;;;;5021609;28;20021;-57
2023/10/14 12:37:28;;;;;;;3.25;1.02;;;11.40;99.90;;;;;;5022190;28;20021;-56
2023/10/14 12:40:11;;;;;;;5.25;1.10;;;11.40;99.90;;;;;;5022266;28;20078;-59
2023/10/14 12:42:47;;;;;;;4.90;0.80;;;11.20;99.90;;;;;;5020063;28;20071;-60
2023/10/14 12:45:14;;;;;;;5.15;1.25;;;10.90;99.90;;;;;;5021504;28;20017;-61
2023/10/14 12:47:46;;;;;;;4.65;0.93;;;10.70;99.90;;;;;;5024926;28;20044;-60
2023/10/14 12:50:20;;;;;;;5.80;1.02;;;10.60;99.90;;;;;;5003193;28;20029;-60
2023/10/14 12:52:56;;;;;;;4.40;1.30;;;10.50;99.90;;;;;;5022635;28;20018;-59
2023/10/14 12:55:25;;;;;;;4.28;1.17;;;10.30;99.90;;;;;;5022606;28;20970;-59
2023/10/14 12:57:51;;;;;;;5.20;1.23;;;10.20;99.90;;;;;;5023027;28;20029;-59
2023/10/14 13:00:25;;;;;;;4.78;1.23;;;10.10;99.90;;;;;;5019753;28;20171;-62
2023/10/14 13:02:53;;;;;;;10.18;1.50;;;10.10;99.90;;;;;;5007248;28;20059;-60
2023/10/14 13:05:20;;;;;;;9.68;2.10;;;10.10;99.90;;;;;;5022007;28;20030;-60
2023/10/14 13:07:47;;;;;;;3.92;0.80;;;10.00;99.90;;;;;;5026391;28;20059;-60
2023/10/14 13:10:18;;;;;;;2.58;1.45;;;10.00;99.90;;;;;;5026301;28;20026;-61
2023/10/14 13:12:45;;;;;;;8.45;1.65;;;10.00;99.90;;;;;;5006988;28;20026;-59
2023/10/14 13:15:11;;;;;;;12.75;1.85;;;10.00;99.90;;;;;;5023333;28;20092;-59
2023/10/14 13:17:37;;;;;;;3.70;1.55;;;10.00;99.90;;;;;;5026457;28;20025;-59
2023/10/14 13:20:03;;;;;;;2.38;1.20;;;10.00;99.90;;;;;;5023976;28;20033;-60
2023/10/14 13:22:30;;;;;;;4.28;1.42;;;10.10;99.90;;;;;;5025923;28;20018;-58
2023/10/14 13:24:55;;;;;;;5.93;1.65;;;10.10;99.90;;;;;;5024964;28;20105;-61
2023/10/14 13:27:21;;;;;;;2.50;1.50;;;10.20;99.90;;;;;;5024641;28;20037;-60
2023/10/14 13:29:47;;;;;;;6.97;1.52;;;10.30;99.90;;;;;;5026702;28;20060;-60
2023/10/14 13:32:14;;;;;;;5.22;1.58;;;10.30;99.90;;;;;;5006972;28;20057;-60
2023/10/14 13:34:40;;;;;;;5.07;2.10;;;10.40;99.90;;;;;;5028668;28;20070;-60
2023/10/14 13:37:08;;;;;;;10.27;1.90;;;10.40;99.90;;;;;;5025181;28;20055;-58